Time;durP1;ratioP1;P1;durP2;ratioP2;P2;SDS_P1;SDS_P2;PMS_P1;PMS_P2;Temp;Humidity;BMP_temperature;BMP_pressure;BME280_temperature;BME280_humidity;BME280_pressure;Samples;Min_cycle;Max_cycle;Signal;HPM_P1;HPM_P2
2021/09/12 00:02:19;;;;;;;20.03;17.97;;;19.00;99.90;;;;;;5049124;28;20191;-58
2021/09/12 00:04:45;;;;;;;21.00;18.80;;;18.60;99.90;;;;;;5045863;28;20211;-57
2021/09/12 00:07:11;;;;;;;22.43;20.07;;;18.90;99.90;;;;;;5049342;28;20263;-58
2021/09/12 00:09:36;;;;;;;21.13;19.07;;;18.90;99.90;;;;;;5050739;28;20189;-57
2021/09/12 00:12:02;;;;;;;23.30;20.80;;;18.90;99.90;;;;;;5053121;28;20417;-59
2021/09/12 00:14:28;;;;;;;23.20;19.53;;;18.80;99.90;;;;;;5049927;28;20184;-57
2021/09/12 00:16:53;;;;;;;21.17;18.97;;;18.80;99.90;;;;;;5053536;28;20967;-58
2021/09/12 00:19:19;;;;;;;21.83;19.73;;;18.80;99.90;;;;;;5052874;28;20425;-56
2021/09/12 00:21:44;;;;;;;21.77;19.40;;;18.80;99.90;;;;;;5062610;28;20709;-57
2021/09/12 00:24:10;;;;;;;21.70;19.40;;;18.70;99.90;;;;;;5067384;28;20189;-58
2021/09/12 00:26:36;;;;;;;24.30;20.97;;;18.80;99.90;;;;;;5053660;28;20255;-57
2021/09/12 00:29:03;;;;;;;21.30;19.03;;;18.80;99.90;;;;;;5061889;28;20449;-57
2021/09/12 00:31:28;;;;;;;20.97;18.83;;;18.80;99.90;;;;;;5053440;28;20667;-58
2021/09/12 00:33:54;;;;;;;23.23;20.50;;;18.70;99.90;;;;;;5051357;28;20438;-58
2021/09/12 00:36:19;;;;;;;21.20;19.00;;;18.70;99.90;;;;;;5052458;28;20231;-57
2021/09/12 00:38:45;;;;;;;23.20;19.80;;;19.90;99.90;;;;;;5051831;28;20223;-58
2021/09/12 00:41:11;;;;;;;27.33;21.07;;;18.70;99.90;;;;;;5052370;28;20213;-57
2021/09/12 00:43:36;;;;;;;22.27;19.90;;;18.70;99.90;;;;;;5053344;28;20188;-57
2021/09/12 00:46:06;;;;;;;24.80;21.90;;;18.60;99.90;;;;;;5062722;28;20263;-57
2021/09/12 00:48:33;;;;;;;23.57;21.17;;;18.60;99.90;;;;;;5061772;28;20190;-57
2021/09/12 00:50:58;;;;;;;22.50;19.80;;;18.50;99.90;;;;;;5052766;28;20452;-57
2021/09/12 00:53:25;;;;;;;24.43;21.80;;;18.50;99.90;;;;;;5052433;28;20537;-57
2021/09/12 00:55:52;;;;;;;22.07;19.73;;;18.40;99.90;;;;;;5053421;28;20246;-58
2021/09/12 00:58:19;;;;;;;23.53;21.00;;;18.40;99.90;;;;;;5053170;28;20936;-57
2021/09/12 01:00:45;;;;;;;23.10;20.70;;;18.50;99.90;;;;;;5052750;28;20453;-58
2021/09/12 01:03:11;;;;;;;21.57;19.37;;;18.50;99.90;;;;;;5052618;28;20919;-56
2021/09/12 01:05:37;;;;;;;24.07;20.90;;;18.50;99.90;;;;;;5052931;28;20457;-58
2021/09/12 01:08:04;;;;;;;22.83;19.93;;;18.40;99.90;;;;;;5052767;28;20186;-59
2021/09/12 01:10:30;;;;;;;23.97;20.57;;;18.40;99.90;;;;;;5058998;28;20946;-56
2021/09/12 01:12:55;;;;;;;22.80;20.33;;;18.40;99.90;;;;;;5051393;28;20449;-57
2021/09/12 01:15:21;;;;;;;22.00;19.37;;;18.40;99.90;;;;;;5052234;28;20191;-57
2021/09/12 01:17:46;;;;;;;21.17;18.90;;;18.50;99.90;;;;;;5052499;28;20540;-58
2021/09/12 01:20:12;;;;;;;23.63;19.20;;;18.40;99.90;;;;;;5048383;28;20246;-57
2021/09/12 01:22:38;;;;;;;20.90;18.40;;;18.40;99.90;;;;;;5049929;28;20189;-59
2021/09/12 01:25:05;;;;;;;21.10;18.97;;;18.40;99.90;;;;;;5048984;28;20844;-56
2021/09/12 01:27:30;;;;;;;21.13;18.83;;;18.40;99.90;;;;;;5047208;28;20283;-57
2021/09/12 01:29:56;;;;;;;20.97;18.73;;;18.40;99.90;;;;;;5048319;28;20539;-58
2021/09/12 01:32:24;;;;;;;20.10;17.70;;;18.50;99.90;;;;;;5050252;28;20187;-56
2021/09/12 01:34:50;;;;;;;19.30;17.27;;;18.40;99.90;;;;;;5049847;28;20292;-57
2021/09/12 01:37:16;;;;;;;18.30;15.70;;;18.50;99.90;;;;;;5046592;28;20529;-57
2021/09/12 01:39:41;;;;;;;17.60;15.80;;;18.40;99.90;;;;;;5049104;28;20186;-58
2021/09/12 01:42:07;;;;;;;18.90;17.00;;;18.40;99.90;;;;;;5050095;28;20198;-58
2021/09/12 01:44:32;;;;;;;19.20;17.10;;;18.40;99.90;;;;;;5048901;28;20186;-57
2021/09/12 01:46:58;;;;;;;19.37;17.37;;;18.40;99.90;;;;;;5046265;28;20555;-56
2021/09/12 01:49:24;;;;;;;18.50;16.60;;;18.40;99.90;;;;;;5050799;28;20546;-58
2021/09/12 01:51:51;;;;;;;17.93;16.00;;;18.40;99.90;;;;;;5047523;28;20720;-57
2021/09/12 01:54:17;;;;;;;18.97;16.53;;;18.30;99.90;;;;;;5049432;28;20461;-58
2021/09/12 01:56:43;;;;;;;19.40;17.50;;;18.30;99.90;;;;;;5050761;28;20458;-58
2021/09/12 01:59:09;;;;;;;19.27;17.17;;;18.30;99.90;;;;;;5048486;28;20222;-58
2021/09/12 02:01:35;;;;;;;21.40;18.07;;;18.30;99.90;;;;;;5048141;28;20540;-57
2021/09/12 02:04:00;;;;;;;19.20;17.20;;;18.30;99.90;;;;;;5051482;28;20200;-57
2021/09/12 02:06:26;;;;;;;20.90;18.13;;;18.30;99.90;;;;;;5049468;28;20203;-58
2021/09/12 02:08:52;;;;;;;17.87;15.97;;;18.30;99.90;;;;;;5049475;28;20201;-58
2021/09/12 02:11:17;;;;;;;20.13;18.13;;;18.40;99.90;;;;;;5049158;28;20283;-57
2021/09/12 02:13:43;;;;;;;20.17;17.20;;;18.40;99.90;;;;;;5050531;28;20200;-58
2021/09/12 02:16:08;;;;;;;20.27;18.23;;;18.40;99.90;;;;;;5050105;28;20249;-59
2021/09/12 02:18:34;;;;;;;20.30;18.23;;;18.50;99.90;;;;;;5048533;28;20200;-57
2021/09/12 02:21:00;;;;;;;20.07;17.97;;;18.50;99.90;;;;;;5049900;28;20597;-59
2021/09/12 02:23:25;;;;;;;20.00;17.97;;;18.60;99.90;;;;;;5049017;28;20183;-58
2021/09/12 02:25:51;;;;;;;22.30;20.00;;;18.60;99.90;;;;;;5050430;28;20438;-57
2021/09/12 02:28:18;;;;;;;19.93;17.93;;;18.60;99.90;;;;;;5047192;28;20207;-57
2021/09/12 02:30:44;;;;;;;20.80;18.60;;;18.60;99.90;;;;;;5049300;28;20245;-57
2021/09/12 02:33:10;;;;;;;20.03;17.83;;;18.60;99.90;;;;;;5047598;28;20515;-59
2021/09/12 02:35:35;;;;;;;19.43;17.57;;;18.60;99.90;;;;;;5049749;28;20449;-58
2021/09/12 02:38:01;;;;;;;19.50;17.53;;;18.70;99.90;;;;;;5048043;28;20253;-57
2021/09/12 02:40:26;;;;;;;19.73;17.77;;;18.70;99.90;;;;;;5049259;28;20180;-57
2021/09/12 02:42:52;;;;;;;19.50;17.60;;;18.80;99.90;;;;;;5048548;28;20195;-57
2021/09/12 02:45:18;;;;;;;19.97;17.90;;;20.00;99.90;;;;;;5046864;28;20188;-57
2021/09/12 02:47:43;;;;;;;21.30;19.10;;;18.80;99.90;;;;;;5045380;28;20245;-57
2021/09/12 02:50:09;;;;;;;19.80;17.43;;;18.80;99.90;;;;;;5048021;28;20195;-58
2021/09/12 02:52:35;;;;;;;19.37;17.50;;;18.80;99.90;;;;;;5045935;28;20680;-57
2021/09/12 02:55:04;;;;;;;18.73;16.50;;;18.70;99.90;;;;;;5045995;28;20781;-57
2021/09/12 02:57:29;;;;;;;20.07;17.97;;;18.70;99.90;;;;;;5048946;28;20528;-57
2021/09/12 02:59:56;;;;;;;22.07;17.80;;;18.80;99.90;;;;;;5045413;28;20447;-58
2021/09/12 03:02:22;;;;;;;18.80;16.70;;;18.70;99.90;;;;;;5047777;28;20226;-57
2021/09/12 03:04:47;;;;;;;19.00;17.03;;;18.60;99.90;;;;;;5048299;28;20490;-56
2021/09/12 03:07:13;;;;;;;19.60;17.60;;;18.70;99.90;;;;;;5048980;28;20317;-57
2021/09/12 03:09:38;;;;;;;18.00;16.23;;;18.70;99.90;;;;;;5049682;28;20594;-58
2021/09/12 03:12:04;;;;;;;19.60;17.60;;;18.70;99.90;;;;;;5041198;28;20198;-57
2021/09/12 03:14:30;;;;;;;19.80;17.83;;;18.70;99.90;;;;;;5045436;28;20317;-57
2021/09/12 03:16:55;;;;;;;19.27;16.70;;;18.70;99.90;;;;;;5047163;28;20695;-58
2021/09/12 03:19:21;;;;;;;19.63;17.63;;;18.70;99.90;;;;;;5045641;28;20288;-57
2021/09/12 03:21:46;;;;;;;19.23;17.23;;;18.70;99.90;;;;;;5045328;28;20195;-56
2021/09/12 03:24:12;;;;;;;18.40;16.70;;;18.70;99.90;;;;;;5048773;28;20193;-58
2021/09/12 03:26:37;;;;;;;19.07;16.60;;;18.60;99.90;;;;;;5051376;28;20184;-58
2021/09/12 03:29:03;;;;;;;19.13;17.23;;;18.60;99.90;;;;;;5049122;28;20284;-58
2021/09/12 03:31:29;;;;;;;18.37;16.47;;;18.50;99.90;;;;;;5048785;28;20191;-58
2021/09/12 03:33:54;;;;;;;17.50;15.67;;;18.60;99.90;;;;;;5047275;28;20215;-57
2021/09/12 03:36:20;;;;;;;17.30;15.63;;;18.70;99.90;;;;;;5047008;28;20225;-59
2021/09/12 03:38:45;;;;;;;17.70;15.90;;;18.60;99.90;;;;;;5051574;28;20218;-57
2021/09/12 03:41:11;;;;;;;16.37;14.43;;;18.50;99.90;;;;;;5048518;28;20191;-58
2021/09/12 03:43:36;;;;;;;17.30;14.57;;;18.60;99.90;;;;;;5049057;28;20183;-56
2021/09/12 03:46:02;;;;;;;15.63;14.03;;;18.70;99.90;;;;;;5043426;28;20180;-56
2021/09/12 03:48:28;;;;;;;17.67;15.03;;;18.70;99.90;;;;;;5041577;28;20244;-57
2021/09/12 03:50:54;;;;;;;18.80;16.90;;;18.60;99.90;;;;;;5047109;28;20846;-58
2021/09/12 03:53:20;;;;;;;17.00;15.40;;;18.70;99.90;;;;;;5049728;28;20192;-57
2021/09/12 03:55:45;;;;;;;19.17;15.80;;;18.70;99.90;;;;;;5052628;28;20193;-57
2021/09/12 03:58:11;;;;;;;17.70;15.90;;;18.60;99.90;;;;;;5048231;28;20244;-56
2021/09/12 04:00:36;;;;;;;17.47;15.53;;;18.60;99.90;;;;;;5045788;28;20200;-57
2021/09/12 04:03:02;;;;;;;17.33;15.63;;;18.40;99.90;;;;;;5048584;28;20182;-56
2021/09/12 04:05:27;;;;;;;17.30;15.50;;;18.50;99.90;;;;;;5048567;28;20188;-57
2021/09/12 04:07:53;;;;;;;20.10;17.30;;;18.40;99.90;;;;;;5051130;28;20201;-57
2021/09/12 04:10:19;;;;;;;18.30;16.40;;;18.40;99.90;;;;;;5048901;28;20195;-58
2021/09/12 04:12:44;;;;;;;17.63;15.83;;;18.40;99.90;;;;;;5044815;28;20192;-58
2021/09/12 04:15:10;;;;;;;17.83;15.90;;;18.40;99.90;;;;;;5049162;28;20191;-58
2021/09/12 04:17:36;;;;;;;19.00;17.20;;;18.40;99.90;;;;;;5047334;28;20221;-57
2021/09/12 04:20:05;;;;;;;22.80;16.47;;;18.40;99.90;;;;;;5046271;28;20541;-57
2021/09/12 04:22:31;;;;;;;18.27;16.30;;;18.40;99.90;;;;;;5048216;28;21125;-58
2021/09/12 04:24:57;;;;;;;18.87;16.67;;;18.40;99.90;;;;;;5048129;28;20803;-58
2021/09/12 04:27:22;;;;;;;18.97;17.07;;;18.40;99.90;;;;;;5048178;28;20656;-57
2021/09/12 04:29:48;;;;;;;16.53;14.80;;;18.40;99.90;;;;;;5047239;28;20660;-58
2021/09/12 04:32:13;;;;;;;18.67;16.17;;;18.40;99.90;;;;;;5046468;28;20253;-57
2021/09/12 04:34:39;;;;;;;17.57;15.80;;;18.40;99.90;;;;;;5047125;28;20275;-58
2021/09/12 04:37:05;;;;;;;17.90;16.00;;;18.40;99.90;;;;;;5045600;28;20303;-57
2021/09/12 04:39:30;;;;;;;16.90;15.40;;;18.40;99.90;;;;;;5047295;28;20217;-58
2021/09/12 04:41:56;;;;;;;16.60;14.90;;;18.40;99.90;;;;;;5047499;28;20509;-57
2021/09/12 04:44:21;;;;;;;18.43;16.57;;;18.50;99.90;;;;;;5048301;28;20188;-58
2021/09/12 04:46:47;;;;;;;17.20;15.43;;;18.40;99.90;;;;;;5051759;28;20281;-56
2021/09/12 04:49:12;;;;;;;17.80;16.00;;;18.50;99.90;;;;;;5043098;28;20217;-58
2021/09/12 04:51:38;;;;;;;17.43;15.70;;;18.50;99.90;;;;;;5043023;28;20216;-59
2021/09/12 04:54:04;;;;;;;16.00;14.40;;;18.70;99.90;;;;;;5048120;28;20237;-57
2021/09/12 04:56:29;;;;;;;18.47;16.77;;;18.70;99.90;;;;;;5046945;28;20393;-58
2021/09/12 04:58:55;;;;;;;18.47;16.67;;;18.80;99.90;;;;;;5050811;28;20212;-58
2021/09/12 05:01:20;;;;;;;17.53;15.97;;;18.80;99.90;;;;;;5052216;28;20648;-57
2021/09/12 05:03:46;;;;;;;16.30;14.70;;;18.70;99.90;;;;;;5057472;28;20201;-57
2021/09/12 05:06:11;;;;;;;17.40;15.70;;;18.80;99.90;;;;;;5058089;28;20246;-58
2021/09/12 05:08:37;;;;;;;16.40;14.83;;;18.80;99.90;;;;;;5052208;28;20226;-57
2021/09/12 05:11:03;;;;;;;15.77;14.27;;;18.80;99.90;;;;;;5049882;28;20187;-58
2021/09/12 05:13:28;;;;;;;16.30;14.63;;;18.90;99.90;;;;;;5051050;28;20189;-57
2021/09/12 05:15:54;;;;;;;16.00;14.50;;;18.90;99.90;;;;;;5042993;28;20280;-58
2021/09/12 05:18:20;;;;;;;16.13;14.53;;;18.90;99.90;;;;;;5050362;28;20233;-58
2021/09/12 05:20:46;;;;;;;16.07;14.50;;;18.90;99.90;;;;;;5056512;28;20180;-56
2021/09/12 05:23:11;;;;;;;15.50;14.10;;;18.90;99.90;;;;;;5050208;28;20430;-57
2021/09/12 05:25:37;;;;;;;18.67;14.90;;;18.90;99.90;;;;;;5051477;28;20218;-58
2021/09/12 05:28:03;;;;;;;15.97;14.30;;;19.10;99.90;;;;;;5050019;28;20190;-59
2021/09/12 05:30:29;;;;;;;14.67;13.27;;;19.10;99.90;;;;;;5049317;28;20668;-57
2021/09/12 05:32:54;;;;;;;15.13;13.73;;;19.10;99.90;;;;;;5049684;28;20199;-59
2021/09/12 05:35:20;;;;;;;16.50;14.90;;;19.20;99.90;;;;;;5046813;28;20423;-57
2021/09/12 05:37:46;;;;;;;15.50;13.60;;;19.10;99.90;;;;;;5048872;28;20238;-58
2021/09/12 05:40:12;;;;;;;14.50;13.20;;;19.20;99.90;;;;;;5047800;28;20510;-56
2021/09/12 05:42:38;;;;;;;15.70;14.30;;;19.30;99.90;;;;;;5049495;28;20541;-59
2021/09/12 05:45:05;;;;;;;14.37;12.97;;;19.20;99.90;;;;;;5048946;28;20856;-58
2021/09/12 05:47:30;;;;;;;15.07;13.40;;;19.20;99.90;;;;;;5050912;28;20188;-56
2021/09/12 05:49:56;;;;;;;15.10;13.70;;;19.30;99.90;;;;;;5050488;28;20564;-57
2021/09/12 05:52:22;;;;;;;15.77;14.30;;;19.30;99.90;;;;;;5049866;28;20302;-56
2021/09/12 05:54:47;;;;;;;14.90;13.60;;;19.40;99.90;;;;;;5048697;28;20186;-58
2021/09/12 05:57:13;;;;;;;14.50;13.20;;;21.00;99.90;;;;;;5049358;28;20187;-57
2021/09/12 05:59:39;;;;;;;14.47;13.07;;;19.50;99.90;;;;;;5048169;28;20207;-58
2021/09/12 06:02:05;;;;;;;14.37;13.07;;;19.40;99.90;;;;;;5048486;28;20191;-56
2021/09/12 06:04:31;;;;;;;15.10;13.70;;;19.40;99.90;;;;;;5049071;28;20188;-56
2021/09/12 06:06:57;;;;;;;14.60;13.13;;;19.50;99.90;;;;;;5049202;28;20450;-56
2021/09/12 06:09:22;;;;;;;14.07;12.60;;;19.40;99.90;;;;;;5049643;28;20457;-57
2021/09/12 06:11:48;;;;;;;13.77;12.33;;;19.40;99.90;;;;;;5047342;28;20210;-58
2021/09/12 06:14:14;;;;;;;14.30;13.10;;;19.40;99.90;;;;;;5050210;28;20194;-57
2021/09/12 06:16:40;;;;;;;14.33;12.90;;;19.50;99.90;;;;;;5046616;28;20454;-57
2021/09/12 06:19:05;;;;;;;14.40;13.03;;;19.50;99.90;;;;;;5050064;28;20688;-59
2021/09/12 06:21:31;;;;;;;18.87;13.97;;;19.60;99.90;;;;;;5049522;28;20257;-57
2021/09/12 06:23:58;;;;;;;13.30;12.00;;;19.50;99.90;;;;;;5050323;28;20239;-58
2021/09/12 06:26:24;;;;;;;12.43;11.33;;;19.80;99.90;;;;;;5052375;28;20199;-57
2021/09/12 06:28:50;;;;;;;13.60;12.27;;;19.80;99.90;;;;;;5048682;28;20486;-57
2021/09/12 06:31:16;;;;;;;12.13;11.07;;;19.90;99.90;;;;;;5050296;28;20490;-58
2021/09/12 06:33:41;;;;;;;14.10;12.80;;;19.80;99.90;;;;;;5049662;28;20232;-57
2021/09/12 06:36:07;;;;;;;14.93;12.40;;;20.10;99.90;;;;;;5048646;28;20224;-57
2021/09/12 06:38:32;;;;;;;13.17;12.07;;;20.10;98.20;;;;;;5047316;28;20254;-57
2021/09/12 06:40:59;;;;;;;12.87;11.77;;;20.20;93.20;;;;;;5049292;28;20190;-56
2021/09/12 06:43:24;;;;;;;14.43;12.93;;;20.30;83.30;;;;;;5052167;28;20188;-56
2021/09/12 06:45:50;;;;;;;12.80;11.70;;;20.30;80.00;;;;;;5053021;28;20437;-58
2021/09/12 06:48:15;;;;;;;12.60;11.50;;;20.30;77.60;;;;;;5062400;28;20557;-58
2021/09/12 06:50:41;;;;;;;12.87;11.87;;;20.40;64.50;;;;;;5050496;28;20195;-59
2021/09/12 06:53:06;;;;;;;14.20;12.00;;;20.30;58.30;;;;;;5050852;28;20199;-56
2021/09/12 06:55:32;;;;;;;13.07;11.83;;;20.30;42.30;;;;;;5049240;28;20192;-57
2021/09/12 06:57:57;;;;;;;14.07;12.70;;;20.30;46.20;;;;;;5050516;28;20207;-58
2021/09/12 07:00:23;;;;;;;12.23;11.20;;;20.20;46.30;;;;;;5050548;28;20190;-59
2021/09/12 07:02:49;;;;;;;12.03;10.93;;;20.30;53.20;;;;;;5050148;28;20245;-59
2021/09/12 07:05:14;;;;;;;14.00;12.70;;;20.30;51.30;;;;;;5050861;28;20180;-58
2021/09/12 07:07:40;;;;;;;13.10;12.00;;;20.30;51.10;;;;;;5049190;28;20207;-57
2021/09/12 07:10:07;;;;;;;13.10;12.00;;;20.40;49.70;;;;;;5050400;28;20677;-57
2021/09/12 07:12:32;;;;;;;12.63;11.47;;;20.40;50.70;;;;;;5050401;28;20512;-56
2021/09/12 07:14:58;;;;;;;12.63;11.50;;;20.40;36.90;;;;;;5050319;28;20549;-57
2021/09/12 07:17:23;;;;;;;12.83;11.70;;;20.40;42.30;;;;;;5049848;28;20183;-57
2021/09/12 07:19:49;;;;;;;13.27;12.10;;;20.40;47.50;;;;;;5049676;28;20625;-58
2021/09/12 07:22:14;;;;;;;12.60;11.50;;;20.50;49.00;;;;;;5049713;28;20187;-57
2021/09/12 07:24:40;;;;;;;12.83;11.63;;;20.60;37.60;;;;;;5050232;28;20191;-59
2021/09/12 07:27:05;;;;;;;11.90;10.90;;;20.60;38.60;;;;;;5049468;28;20174;-59
2021/09/12 07:29:32;;;;;;;12.03;11.03;;;20.70;38.40;;;;;;5049711;28;20544;-57
2021/09/12 07:31:58;;;;;;;12.70;11.50;;;20.80;23.80;;;;;;5049812;28;20433;-56
2021/09/12 07:34:24;;;;;;;12.10;11.10;;;20.90;14.60;;;;;;5048687;28;20438;-58
2021/09/12 07:36:50;;;;;;;11.10;10.20;;;20.90;1.90;;;;;;5049766;28;20520;-57
2021/09/12 07:39:15;;;;;;;11.50;10.40;;;21.00;1.00;;;;;;5049281;28;20200;-55
2021/09/12 07:41:42;;;;;;;12.80;11.57;;;21.00;1.00;;;;;;5050223;28;20646;-57
2021/09/12 07:44:07;;;;;;;12.73;11.50;;;21.10;1.00;;;;;;5049738;28;20455;-56
2021/09/12 07:46:33;;;;;;;12.10;11.07;;;21.10;1.00;;;;;;5049762;28;20192;-58
2021/09/12 07:48:58;;;;;;;11.70;10.50;;;21.10;1.00;;;;;;5049990;28;20228;-57
2021/09/12 07:51:24;;;;;;;11.47;10.47;;;21.00;1.00;;;;;;5049107;28;20538;-57
2021/09/12 07:53:49;;;;;;;12.10;10.90;;;21.00;1.00;;;;;;5049484;28;20193;-58
2021/09/12 07:56:15;;;;;;;11.83;10.87;;;20.90;1.00;;;;;;5049426;28;20545;-58
2021/09/12 07:58:40;;;;;;;11.87;10.87;;;21.00;1.00;;;;;;5049253;28;20235;-57
2021/09/12 08:01:06;;;;;;;11.23;10.20;;;21.00;1.00;;;;;;5049086;28;20196;-56
2021/09/12 08:03:32;;;;;;;11.33;10.33;;;21.10;1.00;;;;;;5049796;28;20283;-57
2021/09/12 08:05:57;;;;;;;10.10;9.20;;;21.10;1.00;;;;;;5049174;28;20709;-58
2021/09/12 08:08:23;;;;;;;9.83;8.83;;;21.20;1.00;;;;;;5049400;28;20181;-57
2021/09/12 08:10:49;;;;;;;11.13;10.20;;;21.20;1.00;;;;;;5049417;28;20196;-57
2021/09/12 08:13:15;;;;;;;10.93;9.73;;;21.20;1.00;;;;;;5049357;28;20220;-57
2021/09/12 08:15:40;;;;;;;9.67;8.87;;;21.20;1.00;;;;;;5049905;28;20813;-56
2021/09/12 08:18:06;;;;;;;10.97;9.97;;;21.20;1.00;;;;;;5049757;28;20258;-59
2021/09/12 08:20:32;;;;;;;9.03;8.20;;;21.30;1.00;;;;;;5047544;28;20204;-58
2021/09/12 08:22:58;;;;;;;10.13;9.00;;;21.50;1.00;;;;;;5049662;28;20176;-57
2021/09/12 08:25:24;;;;;;;11.70;9.17;;;21.70;1.00;;;;;;5049702;28;20203;-57
2021/09/12 08:27:50;;;;;;;10.00;8.80;;;21.90;1.00;;;;;;5050313;28;20185;-57
2021/09/12 08:30:16;;;;;;;9.83;8.90;;;21.90;1.00;;;;;;5051388;28;20950;-58
2021/09/12 08:32:41;;;;;;;9.40;8.40;;;22.10;1.00;;;;;;5064629;28;20211;-57
2021/09/12 08:35:08;;;;;;;9.43;8.73;;;22.10;1.00;;;;;;5059884;28;20902;-59
2021/09/12 08:37:34;;;;;;;9.93;9.07;;;22.30;1.00;;;;;;5053510;28;20247;-57
2021/09/12 08:40:00;;;;;;;9.37;8.47;;;22.40;1.00;;;;;;5053485;28;20521;-58
2021/09/12 08:42:26;;;;;;;9.33;8.53;;;22.50;1.00;;;;;;5061581;28;20950;-58
2021/09/12 08:44:52;;;;;;;9.80;8.80;;;22.70;1.00;;;;;;5059917;28;20437;-60
2021/09/12 08:47:19;;;;;;;9.37;8.57;;;22.70;1.00;;;;;;5056299;28;20454;-57
2021/09/12 08:49:46;;;;;;;9.63;8.73;;;22.90;1.00;;;;;;5053734;28;20435;-58
2021/09/12 08:52:13;;;;;;;9.13;8.33;;;23.00;1.00;;;;;;5057888;28;20409;-58
2021/09/12 08:54:38;;;;;;;9.50;8.70;;;23.20;1.00;;;;;;5051957;28;20447;-60
2021/09/12 08:57:04;;;;;;;8.83;7.93;;;23.50;1.00;;;;;;5056218;28;20811;-57
2021/09/12 08:59:32;;;;;;;9.60;8.80;;;23.50;1.00;;;;;;5066207;28;20669;-58
2021/09/12 09:02:03;;;;;;;9.53;8.77;;;23.40;1.00;;;;;;5045527;28;20177;-57
2021/09/12 09:04:34;;;;;;;8.93;8.10;;;23.40;1.00;;;;;;5044951;28;20453;-57
2021/09/12 09:07:08;;;;;;;8.77;7.97;;;23.40;1.00;;;;;;5041977;28;20448;-58
2021/09/12 09:09:46;;;;;;;9.90;9.10;;;23.40;1.00;;;;;;5053110;28;20960;-58
2021/09/12 09:12:34;;;;;;;9.60;8.90;;;23.30;1.00;;;;;;5052461;28;20500;-58
2021/09/12 09:15:13;;;;;;;9.43;8.63;;;23.50;1.00;;;;;;5051537;28;20439;-58
2021/09/12 09:17:41;;;;;;;10.63;9.73;;;24.20;1.00;;;;;;5051273;28;20417;-57
2021/09/12 09:20:10;;;;;;;9.70;8.90;;;24.70;1.00;;;;;;5052932;28;20552;-58
2021/09/12 09:22:38;;;;;;;12.70;11.50;;;25.10;1.00;;;;;;5052967;28;20462;-57
2021/09/12 09:25:12;;;;;;;12.07;10.97;;;25.10;1.00;;;;;;5052845;28;20427;-57
2021/09/12 09:28:07;;;;;;;12.97;10.87;;;24.60;1.00;;;;;;5052820;28;20436;-57
2021/09/12 09:30:54;;;;;;;12.60;11.30;;;24.70;1.00;;;;;;5052497;28;20936;-57
2021/09/12 09:33:27;;;;;;;12.90;11.60;;;24.70;1.00;;;;;;5052492;28;20823;-58
2021/09/12 09:36:04;;;;;;;12.50;11.37;;;24.60;1.00;;;;;;5052251;28;20509;-55
2021/09/12 09:38:32;;;;;;;13.87;12.30;;;24.10;1.00;;;;;;5050591;28;20437;-57
2021/09/12 09:41:11;;;;;;;12.60;11.37;;;24.00;1.00;;;;;;5052398;28;20422;-56
2021/09/12 09:43:48;;;;;;;13.07;11.87;;;24.10;1.00;;;;;;5051769;28;20410;-57
2021/09/12 09:46:33;;;;;;;13.07;11.80;;;24.00;1.00;;;;;;5052410;28;20763;-58
2021/09/12 09:49:18;;;;;;;13.83;12.53;;;23.70;1.00;;;;;;5052010;28;20453;-56
2021/09/12 09:51:48;;;;;;;13.30;12.10;;;23.60;1.00;;;;;;5052878;28;20916;-57
2021/09/12 09:54:15;;;;;;;24.63;12.73;;;23.50;1.00;;;;;;5052705;28;20447;-56
2021/09/12 09:56:42;;;;;;;12.80;11.60;;;23.50;1.00;;;;;;5050936;28;20469;-55
2021/09/12 09:59:08;;;;;;;15.07;13.77;;;23.40;1.00;;;;;;5051077;28;20959;-58
2021/09/12 10:01:35;;;;;;;14.30;13.10;;;23.70;1.00;;;;;;5051134;28;20420;-56
2021/09/12 10:04:01;;;;;;;15.60;14.10;;;24.00;1.00;;;;;;5051614;28;20699;-55
2021/09/12 10:06:27;;;;;;;14.53;13.23;;;24.50;1.00;;;;;;5051629;28;20439;-57
2021/09/12 10:08:53;;;;;;;13.40;12.30;;;25.10;1.00;;;;;;5051790;28;20176;-57
2021/09/12 10:11:19;;;;;;;15.60;14.13;;;25.50;1.00;;;;;;5051347;28;20510;-55
2021/09/12 10:13:46;;;;;;;13.30;11.97;;;25.90;1.00;;;;;;5051972;28;20231;-55
2021/09/12 10:16:16;;;;;;;13.20;12.10;;;26.10;1.00;;;;;;5051177;28;20184;-57
2021/09/12 10:18:42;;;;;;;13.33;12.20;;;26.30;1.00;;;;;;5051514;28;20480;-56
2021/09/12 10:21:28;;;;;;;11.80;10.70;;;26.10;1.00;;;;;;5051232;28;20960;-58
2021/09/12 10:23:59;;;;;;;12.90;11.70;;;25.80;1.00;;;;;;5050822;28;20183;-55
2021/09/12 10:26:33;;;;;;;12.37;11.27;;;25.80;1.00;;;;;;5051178;28;20946;-56
2021/09/12 10:28:59;;;;;;;11.60;10.50;;;25.90;1.00;;;;;;5051572;28;20967;-57
2021/09/12 10:31:27;;;;;;;10.40;9.50;;;25.70;1.00;;;;;;5050705;28;20524;-56
2021/09/12 10:34:04;;;;;;;10.47;9.47;;;25.70;1.00;;;;;;5066612;28;20509;-57
2021/09/12 10:36:30;;;;;;;10.50;9.60;;;25.90;1.00;;;;;;5059651;28;20440;-56
2021/09/12 10:38:56;;;;;;;10.10;9.30;;;26.40;1.00;;;;;;5049812;28;20495;-55
2021/09/12 10:41:21;;;;;;;9.67;8.67;;;26.60;1.00;;;;;;5048479;28;20443;-54
2021/09/12 10:43:49;;;;;;;10.77;9.77;;;26.60;1.00;;;;;;5050392;28;20642;-56
2021/09/12 10:46:19;;;;;;;9.63;8.83;;;26.60;1.00;;;;;;5050433;28;20185;-56
2021/09/12 10:48:51;;;;;;;9.63;8.70;;;26.60;1.00;;;;;;5065208;28;20470;-55
2021/09/12 10:51:19;;;;;;;9.63;8.83;;;26.70;1.00;;;;;;5050645;28;20962;-56
2021/09/12 10:53:45;;;;;;;8.87;8.07;;;26.90;1.00;;;;;;5049387;28;20437;-55
2021/09/12 10:56:16;;;;;;;8.40;7.60;;;26.90;1.00;;;;;;5049975;28;20425;-57
2021/09/12 10:58:43;;;;;;;8.20;7.60;;;26.90;1.00;;;;;;5050188;28;20211;-55
2021/09/12 11:01:13;;;;;;;9.20;8.40;;;26.50;1.00;;;;;;5047210;28;20866;-55
2021/09/12 11:03:45;;;;;;;6.80;6.30;;;25.80;1.00;;;;;;5050477;28;20498;-55
2021/09/12 11:06:17;;;;;;;7.27;6.67;;;25.60;1.00;;;;;;5053611;28;20412;-56
2021/09/12 11:08:44;;;;;;;7.30;6.60;;;25.40;1.00;;;;;;5069382;28;20436;-56
2021/09/12 11:11:10;;;;;;;6.90;6.40;;;25.20;1.00;;;;;;5070500;28;20466;-55
2021/09/12 11:13:38;;;;;;;6.20;5.80;;;25.10;1.00;;;;;;5070513;28;20442;-56
2021/09/12 11:16:18;;;;;;;7.67;6.87;;;25.40;1.00;;;;;;5070539;28;20445;-55
2021/09/12 11:19:02;;;;;;;6.30;5.90;;;25.80;1.00;;;;;;5070190;28;20819;-55
2021/09/12 11:21:33;;;;;;;6.80;6.27;;;25.90;1.00;;;;;;5070168;28;20461;-57
2021/09/12 11:24:02;;;;;;;6.30;5.80;;;26.10;1.00;;;;;;5055065;28;20450;-55
2021/09/12 11:26:35;;;;;;;6.27;5.87;;;26.40;1.00;;;;;;5070401;28;20430;-56
2021/09/12 11:29:07;;;;;;;6.03;5.53;;;26.70;1.00;;;;;;5070413;28;20423;-57
2021/09/12 11:31:35;;;;;;;5.80;5.30;;;26.80;1.00;;;;;;5070056;28;20423;-57
2021/09/12 11:34:02;;;;;;;5.17;4.77;;;26.60;1.00;;;;;;5070630;28;20451;-57
2021/09/12 11:36:38;;;;;;;5.70;5.20;;;26.50;1.00;;;;;;5068888;28;20448;-56
2021/09/12 11:39:04;;;;;;;5.60;5.10;;;26.30;1.00;;;;;;5048125;28;20498;-56
2021/09/12 11:41:30;;;;;;;6.67;6.17;;;26.20;1.00;;;;;;5050516;28;20413;-55
2021/09/12 11:43:59;;;;;;;6.00;5.30;;;25.90;1.00;;;;;;5050809;28;20208;-56
2021/09/12 11:46:26;;;;;;;6.20;5.60;;;25.70;1.00;;;;;;5050534;28;20962;-56
2021/09/12 11:48:56;;;;;;;8.10;6.17;;;25.80;1.00;;;;;;5049848;28;20495;-55
2021/09/12 11:51:34;;;;;;;6.23;5.27;;;25.70;1.00;;;;;;5053088;28;20804;-57
2021/09/12 11:54:11;;;;;;;5.83;5.33;;;25.90;1.00;;;;;;5046197;28;20440;-56
2021/09/12 11:56:38;;;;;;;5.90;5.50;;;26.20;1.00;;;;;;5050158;28;20920;-58
2021/09/12 11:59:06;;;;;;;6.13;5.67;;;26.40;1.00;;;;;;5049950;28;20525;-56
2021/09/12 12:01:31;;;;;;;5.67;5.03;;;26.50;1.00;;;;;;5050145;28;20708;-56
2021/09/12 12:04:02;;;;;;;7.20;6.60;;;26.20;1.00;;;;;;5049887;28;20567;-55
2021/09/12 12:06:28;;;;;;;7.20;6.60;;;25.90;1.00;;;;;;5050829;28;20259;-56
2021/09/12 12:09:08;;;;;;;6.37;5.77;;;25.60;1.00;;;;;;5054056;28;20421;-58
2021/09/12 12:11:36;;;;;;;8.80;8.10;;;25.60;1.00;;;;;;5052892;28;20469;-58
2021/09/12 12:14:02;;;;;;;7.97;7.27;;;25.90;1.00;;;;;;5053907;28;20439;-57
2021/09/12 12:16:37;;;;;;;6.33;5.73;;;25.80;1.00;;;;;;5053945;28;20453;-58
2021/09/12 12:19:07;;;;;;;6.77;6.27;;;25.70;1.00;;;;;;5052586;28;20545;-56
2021/09/12 12:21:33;;;;;;;5.97;5.50;;;25.70;1.00;;;;;;5052715;28;20522;-56
2021/09/12 12:24:08;;;;;;;5.80;5.30;;;25.70;1.00;;;;;;5054015;28;21066;-57
2021/09/12 12:26:43;;;;;;;4.80;4.40;;;25.90;1.00;;;;;;5059258;28;20907;-57
2021/09/12 12:29:08;;;;;;;5.50;5.10;;;25.70;1.00;;;;;;5053035;28;20421;-57
2021/09/12 12:31:35;;;;;;;5.20;4.70;;;25.90;1.00;;;;;;5053510;28;21111;-57
2021/09/12 12:34:01;;;;;;;5.33;4.93;;;26.20;1.00;;;;;;5053348;28;20196;-56
2021/09/12 12:36:26;;;;;;;4.93;4.63;;;26.30;1.00;;;;;;5053567;28;20817;-58